DTTX/SFA METAR and TAF weather

Enter ICAO airport designator
Station Type Date Time Source
DTTX METAR 2018/01/19 22:00 UTC NOAA

DTTX 192200Z 01008KT 8000 NSC 11/10 Q1014 NOSIG


Station Type Date Time Source
DTTX Decoded METAR 2018/01/19 22:00 UTC NOAA

Sfax El-Maou, Tunisia (DTTX) 34-43N 010-41E 23M
Jan 19, 2018 - 05:00 PM EST / 2018.01.19 2200 UTC
Wind: from the N (010 degrees) at 9 MPH (8 KT):0
Visibility: 4 mile(s):0
Temperature: 51 F (11 C)
Dew Point: 50 F (10 C)
Relative Humidity: 93%
Pressure (altimeter): 29.94 in. Hg (1014 hPa)
ob: DTTX 192200Z 01008KT 8000 NSC 11/10 Q1014 NOSIG
cycle: 22

Station Type Date Time Source
DTTX TAF 2017/08/22 04:48 UTC NOAA

TAF DTTX 220640Z 2204/2216 36012KT 9999 FEW033


Example: see airport list